Time;durP1;ratioP1;P1;durP2;ratioP2;P2;SDS_P1;SDS_P2;PMS_P1;PMS_P2;Temp;Humidity;BMP_temperature;BMP_pressure;BME280_temperature;BME280_humidity;BME280_pressure;Samples;Min_cycle;Max_cycle;Signal;HPM_P1;HPM_P2
2022/04/28 00:00:24;;;;;;;18.98;11.63;;;;;;;;;;2073051;28;20161;-53
2022/04/28 00:01:24;;;;;;;17.87;11.57;;;;;;;;;;2072427;28;20224;-50
2022/04/28 00:02:25;;;;;;;15.00;10.80;;;;;;;;;;2072410;28;21481;-52
2022/04/28 00:03:25;;;;;;;17.80;11.30;;;;;;;;;;2072774;28;20196;-51
2022/04/28 00:04:25;;;;;;;19.77;12.00;;;;;;;;;;2072930;28;20219;-48
2022/04/28 00:05:26;;;;;;;17.97;11.67;;;;;;;;;;2073124;28;20259;-52
2022/04/28 00:06:26;;;;;;;15.50;11.37;;;;;;;;;;2072939;28;20173;-51
2022/04/28 00:07:27;;;;;;;17.47;12.83;;;;;;;;;;2072227;28;20161;-48
2022/04/28 00:08:27;;;;;;;16.40;11.47;;;;;;;;;;2071829;28;20545;-48
2022/04/28 00:09:27;;;;;;;17.33;10.97;;;;;;;;;;2072454;28;20177;-53
2022/04/28 00:10:27;;;;;;;18.03;11.57;;;;;;;;;;2072590;28;20177;-50
2022/04/28 00:11:28;;;;;;;16.50;11.53;;;;;;;;;;2071037;28;20300;-51
2022/04/28 00:12:28;;;;;;;18.07;12.17;;;;;;;;;;2071314;28;21018;-50
2022/04/28 00:13:28;;;;;;;16.00;12.10;;;;;;;;;;2071627;28;20544;-49
2022/04/28 00:14:30;;;;;;;19.47;12.33;;;;;;;;;;2069398;28;20176;-49
2022/04/28 00:15:30;;;;;;;18.33;11.77;;;;;;;;;;2071962;28;20662;-48
2022/04/28 00:16:30;;;;;;;18.27;11.80;;;;;;;;;;2069796;28;20185;-51
2022/04/28 00:17:30;;;;;;;17.50;11.50;;;;;;;;;;2072616;28;20626;-52
2022/04/28 00:18:31;;;;;;;16.50;12.13;;;;;;;;;;2069790;28;20188;-54
2022/04/28 00:19:31;;;;;;;17.43;11.67;;;;;;;;;;2073130;28;20230;-50
2022/04/28 00:20:31;;;;;;;18.43;12.20;;;;;;;;;;2072662;28;20181;-56
2022/04/28 00:21:31;;;;;;;18.43;11.70;;;;;;;;;;2070389;28;20207;-49
2022/04/28 00:22:32;;;;;;;15.63;12.30;;;;;;;;;;2072997;28;20625;-52
2022/04/28 00:23:32;;;;;;;19.90;11.77;;;;;;;;;;2070376;28;20547;-51
2022/04/28 00:24:33;;;;;;;19.80;11.83;;;;;;;;;;2073093;28;20597;-51
2022/04/28 00:25:33;;;;;;;15.30;11.60;;;;;;;;;;2073795;28;20185;-49
2022/04/28 00:26:33;;;;;;;22.33;12.10;;;;;;;;;;2073923;28;20168;-50
2022/04/28 00:27:33;;;;;;;22.53;12.40;;;;;;;;;;2073951;28;20276;-47
2022/04/28 00:28:34;;;;;;;19.37;12.13;;;;;;;;;;2073909;28;20196;-54
2022/04/28 00:29:34;;;;;;;21.53;12.63;;;;;;;;;;2065766;28;20185;-55
2022/04/28 00:30:35;;;;;;;17.80;12.57;;;;;;;;;;2065705;28;20213;-51
2022/04/28 00:31:36;;;;;;;16.83;12.07;;;;;;;;;;2057115;28;20190;-55
2022/04/28 00:32:36;;;;;;;17.70;12.07;;;;;;;;;;2065804;28;20602;-54
2022/04/28 00:33:36;;;;;;;15.13;11.00;;;;;;;;;;2074096;28;20267;-51
2022/04/28 00:34:36;;;;;;;15.27;11.93;;;;;;;;;;2082250;28;20200;-49
2022/04/28 00:35:38;;;;;;;17.53;11.03;;;;;;;;;;2074623;28;20200;-54
2022/04/28 00:36:38;;;;;;;15.67;12.77;;;;;;;;;;2074596;28;20169;-50
2022/04/28 00:37:39;;;;;;;14.37;11.90;;;;;;;;;;2073534;28;20593;-50
2022/04/28 00:38:39;;;;;;;15.93;13.10;;;;;;;;;;2073530;28;20634;-54
2022/04/28 00:39:40;;;;;;;18.97;11.77;;;;;;;;;;2073776;28;20747;-53
2022/04/28 00:40:40;;;;;;;16.70;11.40;;;;;;;;;;2073666;28;20187;-49
2022/04/28 00:41:41;;;;;;;15.53;12.20;;;;;;;;;;2073563;28;20330;-50
2022/04/28 00:42:41;;;;;;;20.00;13.23;;;;;;;;;;2075924;28;20315;-49
2022/04/28 00:43:49;;;;;;;14.90;12.23;;;;;;;;;;2069006;28;20560;-51
2022/04/28 00:44:49;;;;;;;16.97;11.73;;;;;;;;;;2073689;28;20380;-50
2022/04/28 00:45:50;;;;;;;17.47;11.80;;;;;;;;;;2074217;28;20181;-54
2022/04/28 00:46:51;;;;;;;21.27;13.27;;;;;;;;;;2074089;28;20177;-49
2022/04/28 00:50:38;;;;;;;15.30;11.90;;;;;;;;;;2074117;28;20173;-57
2022/04/28 00:51:40;;;;;;;15.73;11.63;;;;;;;;;;2073949;28;20228;-55
2022/04/28 00:52:41;;;;;;;16.70;11.80;;;;;;;;;;2073855;28;20267;-49
2022/04/28 00:53:43;;;;;;;19.27;13.20;;;;;;;;;;2074218;28;20165;-52
2022/04/28 00:54:44;;;;;;;17.57;11.93;;;;;;;;;;2073634;28;20168;-55
2022/04/28 00:55:44;;;;;;;17.00;12.60;;;;;;;;;;2065971;28;20236;-56
2022/04/28 00:56:45;;;;;;;14.90;11.90;;;;;;;;;;2074914;28;20192;-52
2022/04/28 00:57:45;;;;;;;19.30;12.07;;;;;;;;;;2073620;28;20669;-52
2022/04/28 00:58:48;;;;;;;17.10;13.27;;;;;;;;;;2065760;28;20213;-53
2022/04/28 00:59:49;;;;;;;16.93;13.33;;;;;;;;;;2067936;28;20204;-47
2022/04/28 01:00:49;;;;;;;19.97;12.93;;;;;;;;;;2073711;28;20208;-51
2022/04/28 01:01:50;;;;;;;20.30;12.77;;;;;;;;;;2073780;28;20169;-48
2022/04/28 01:02:50;;;;;;;17.00;13.07;;;;;;;;;;2076750;28;20183;-49
2022/04/28 01:03:51;;;;;;;18.03;13.77;;;;;;;;;;2074149;28;20216;-49
2022/04/28 01:04:51;;;;;;;18.03;13.87;;;;;;;;;;2070853;28;20186;-51
2022/04/28 01:05:51;;;;;;;20.00;13.07;;;;;;;;;;2074770;28;20176;-49
2022/04/28 01:06:52;;;;;;;17.17;13.00;;;;;;;;;;2073606;28;20235;-49
2022/04/28 01:07:52;;;;;;;19.00;12.47;;;;;;;;;;2074405;28;20272;-49
2022/04/28 01:08:55;;;;;;;15.03;12.67;;;;;;;;;;2072841;28;20657;-50
2022/04/28 01:09:56;;;;;;;17.37;13.40;;;;;;;;;;2064340;28;20622;-51
2022/04/28 01:10:57;;;;;;;19.03;13.20;;;;;;;;;;2065059;28;20177;-47
2022/04/28 01:11:58;;;;;;;18.70;12.57;;;;;;;;;;2065454;28;20201;-50
2022/04/28 01:13:03;;;;;;;15.80;13.50;;;;;;;;;;2073526;28;20697;-51
2022/04/28 01:14:03;;;;;;;19.23;12.93;;;;;;;;;;2065468;28;20185;-50
2022/04/28 01:15:11;;;;;;;16.43;12.80;;;;;;;;;;2069637;28;20191;-48
2022/04/28 01:16:13;;;;;;;18.30;12.93;;;;;;;;;;2073163;28;20169;-51
2022/04/28 01:17:14;;;;;;;20.30;13.50;;;;;;;;;;2065316;28;20185;-50
2022/04/28 01:18:19;;;;;;;24.27;13.33;;;;;;;;;;2072229;28;20167;-48
2022/04/28 01:19:19;;;;;;;21.07;13.03;;;;;;;;;;2069639;28;20201;-49
2022/04/28 01:20:19;;;;;;;18.47;13.07;;;;;;;;;;2063466;28;20177;-55
2022/04/28 01:21:20;;;;;;;21.10;13.23;;;;;;;;;;2065725;28;20189;-52
2022/04/28 01:22:21;;;;;;;16.73;13.20;;;;;;;;;;2075138;28;20318;-49
2022/04/28 01:23:21;;;;;;;20.87;12.73;;;;;;;;;;2066702;28;20181;-52
2022/04/28 01:24:22;;;;;;;20.07;13.07;;;;;;;;;;2066706;28;21894;-54
2022/04/28 01:25:23;;;;;;;22.97;13.27;;;;;;;;;;2065780;28;20185;-51
2022/04/28 01:26:25;;;;;;;20.87;13.87;;;;;;;;;;2074759;28;20169;-55
2022/04/28 01:27:26;;;;;;;17.43;13.57;;;;;;;;;;2065346;28;20231;-50
2022/04/28 01:28:27;;;;;;;17.37;12.70;;;;;;;;;;2057375;28;20551;-50
2022/04/28 01:29:27;;;;;;;18.10;12.67;;;;;;;;;;2066426;28;20181;-51
2022/04/28 01:30:28;;;;;;;20.97;12.60;;;;;;;;;;2065070;28;20181;-49
2022/04/28 01:31:30;;;;;;;21.40;13.47;;;;;;;;;;2066214;28;20690;-51
2022/04/28 01:32:37;;;;;;;18.80;13.50;;;;;;;;;;2064179;28;20175;-48
2022/04/28 01:33:37;;;;;;;18.03;14.37;;;;;;;;;;2074980;28;20180;-55
2022/04/28 01:34:41;;;;;;;19.27;13.07;;;;;;;;;;2071786;28;20177;-48
2022/04/28 01:35:41;;;;;;;23.03;12.93;;;;;;;;;;2066447;28;20792;-50
2022/04/28 01:36:42;;;;;;;19.37;14.03;;;;;;;;;;2066292;28;20240;-47
2022/04/28 01:37:42;;;;;;;21.03;13.67;;;;;;;;;;2067126;28;20173;-48
2022/04/28 01:38:47;;;;;;;21.00;13.97;;;;;;;;;;2064531;28;20251;-49
2022/04/28 01:39:47;;;;;;;18.90;14.00;;;;;;;;;;2074103;28;20177;-49
2022/04/28 01:40:48;;;;;;;22.87;14.17;;;;;;;;;;2070526;28;20174;-50
2022/04/28 01:41:49;;;;;;;19.20;14.67;;;;;;;;;;2075059;28;20185;-48
2022/04/28 01:42:49;;;;;;;18.93;14.03;;;;;;;;;;2074723;28;20169;-52
2022/04/28 01:43:51;;;;;;;24.47;15.83;;;;;;;;;;2073786;28;20239;-52
2022/04/28 01:44:51;;;;;;;22.87;15.33;;;;;;;;;;2066661;28;20186;-52
2022/04/28 01:45:52;;;;;;;23.97;14.63;;;;;;;;;;2074912;28;20240;-50
2022/04/28 01:47:11;;;;;;;23.90;15.97;;;;;;;;;;2067606;28;20569;-51
2022/04/28 01:48:30;;;;;;;21.20;14.00;;;;;;;;;;2075287;28;20181;-49
2022/04/28 01:49:45;;;;;;;20.60;14.33;;;;;;;;;;2075592;28;20195;-50
2022/04/28 01:55:37;;;;;;;22.67;14.20;;;;;;;;;;2067345;28;20204;-48
2022/04/28 01:56:55;;;;;;;24.30;13.93;;;;;;;;;;2066994;28;20248;-50
2022/04/28 01:58:07;;;;;;;20.50;15.40;;;;;;;;;;2071773;28;20176;-48
2022/04/28 01:59:39;;;;;;;20.20;13.47;;;;;;;;;;2077094;28;20249;-50
2022/04/28 02:00:57;;;;;;;19.87;14.10;;;;;;;;;;2075324;28;20195;-50
2022/04/28 02:01:58;;;;;;;19.73;13.47;;;;;;;;;;2070791;28;20180;-52
2022/04/28 02:02:58;;;;;;;21.07;14.57;;;;;;;;;;2074246;28;20713;-47
2022/04/28 02:03:58;;;;;;;22.30;13.73;;;;;;;;;;2073976;28;20177;-51
2022/04/28 02:04:59;;;;;;;20.43;13.33;;;;;;;;;;2072999;28;20180;-54
2022/04/28 02:06:02;;;;;;;24.90;15.27;;;;;;;;;;2066356;28;20265;-51
2022/04/28 02:07:02;;;;;;;20.07;13.50;;;;;;;;;;2065135;28;20587;-53
2022/04/28 02:08:03;;;;;;;19.90;16.07;;;;;;;;;;2069850;28;20189;-55
2022/04/28 02:09:04;;;;;;;23.43;16.90;;;;;;;;;;2072977;28;20181;-50
2022/04/28 02:10:05;;;;;;;24.03;14.47;;;;;;;;;;2064105;28;20180;-53
2022/04/28 02:11:06;;;;;;;25.73;15.27;;;;;;;;;;2065024;28;20201;-52
2022/04/28 02:12:25;;;;;;;24.20;14.87;;;;;;;;;;2069026;28;20165;-54
2022/04/28 02:13:54;;;;;;;21.40;13.37;;;;;;;;;;2063145;28;20179;-52
2022/04/28 02:15:13;;;;;;;18.43;13.57;;;;;;;;;;2068027;28;20189;-50
2022/04/28 02:16:39;;;;;;;22.30;12.57;;;;;;;;;;2079817;28;20180;-51
2022/04/28 02:17:50;;;;;;;26.70;15.20;;;;;;;;;;2074012;28;20200;-51
2022/04/28 02:18:52;;;;;;;24.30;15.83;;;;;;;;;;2069576;28;20677;-52
2022/04/28 02:19:53;;;;;;;24.63;16.40;;;;;;;;;;2074646;28;20209;-53
2022/04/28 02:20:53;;;;;;;25.07;16.50;;;;;;;;;;2082806;28;20176;-55
2022/04/28 02:21:55;;;;;;;20.37;14.83;;;;;;;;;;2073405;28;20562;-53
2022/04/28 02:22:56;;;;;;;25.17;15.63;;;;;;;;;;2066334;28;20223;-53
2022/04/28 02:23:57;;;;;;;23.57;15.60;;;;;;;;;;2074749;28;20253;-52
2022/04/28 02:24:57;;;;;;;21.57;14.97;;;;;;;;;;2066416;28;20181;-52
2022/04/28 02:25:58;;;;;;;21.83;15.37;;;;;;;;;;2066217;28;20170;-54
2022/04/28 02:26:59;;;;;;;23.50;14.73;;;;;;;;;;2073824;28;20259;-52
2022/04/28 02:28:00;;;;;;;25.27;15.13;;;;;;;;;;2082135;28;20672;-50
2022/04/28 02:29:01;;;;;;;20.97;15.17;;;;;;;;;;2083925;28;20175;-50
2022/04/28 02:30:07;;;;;;;22.67;15.00;;;;;;;;;;2076332;28;20661;-51
2022/04/28 02:31:10;;;;;;;23.73;14.80;;;;;;;;;;2066673;28;20244;-55
2022/04/28 02:32:10;;;;;;;22.57;14.97;;;;;;;;;;2060080;28;20209;-54
2022/04/28 02:33:10;;;;;;;24.10;14.90;;;;;;;;;;2066055;28;20227;-49
2022/04/28 02:34:31;;;;;;;26.27;14.63;;;;;;;;;;2073667;28;20180;-49
2022/04/28 02:35:31;;;;;;;24.27;15.77;;;;;;;;;;2069923;28;20259;-52
2022/04/28 02:36:32;;;;;;;22.30;15.47;;;;;;;;;;2074446;28;20208;-54
2022/04/28 02:37:32;;;;;;;21.90;14.60;;;;;;;;;;2066617;28;20184;-50
2022/04/28 02:38:32;;;;;;;22.57;14.90;;;;;;;;;;2066104;28;20626;-49
2022/04/28 02:39:35;;;;;;;25.10;14.57;;;;;;;;;;2072341;28;20173;-51
2022/04/28 02:40:35;;;;;;;26.00;14.60;;;;;;;;;;2073756;28;20822;-51
2022/04/28 02:41:39;;;;;;;22.60;14.77;;;;;;;;;;2060846;28;20198;-51
2022/04/28 02:42:40;;;;;;;19.90;14.93;;;;;;;;;;2075595;28;20645;-51
2022/04/28 02:43:40;;;;;;;23.43;15.03;;;;;;;;;;2068862;28;20165;-53
2022/04/28 02:44:47;;;;;;;23.83;14.77;;;;;;;;;;2067701;28;20197;-54
2022/04/28 02:45:50;;;;;;;21.27;14.70;;;;;;;;;;2066078;28;20212;-48
2022/04/28 02:46:54;;;;;;;21.77;14.73;;;;;;;;;;2061303;28;20218;-50
2022/04/28 02:47:59;;;;;;;22.80;15.50;;;;;;;;;;2064806;28;20181;-52
2022/04/28 02:49:01;;;;;;;22.63;15.93;;;;;;;;;;2069793;28;20173;-49
2022/04/28 02:50:11;;;;;;;23.80;15.33;;;;;;;;;;2074463;28;20184;-48
2022/04/28 02:51:13;;;;;;;26.90;15.07;;;;;;;;;;2067063;28;20205;-47
2022/04/28 02:52:17;;;;;;;21.73;15.37;;;;;;;;;;2066376;28;20170;-50
2022/04/28 02:53:20;;;;;;;25.77;14.97;;;;;;;;;;2074313;28;20262;-52
2022/04/28 02:54:25;;;;;;;21.80;14.57;;;;;;;;;;2065569;28;20560;-51
2022/04/28 02:55:27;;;;;;;22.53;14.53;;;;;;;;;;2071451;28;20244;-51
2022/04/28 02:56:27;;;;;;;21.87;14.60;;;;;;;;;;2067051;28;20631;-50
2022/04/28 02:57:27;;;;;;;21.47;15.33;;;;;;;;;;2065446;28;20305;-53
2022/04/28 02:58:28;;;;;;;26.70;15.43;;;;;;;;;;2066590;28;20178;-50
2022/04/28 02:59:29;;;;;;;26.43;16.70;;;;;;;;;;2065582;28;20185;-52
2022/04/28 03:00:29;;;;;;;21.53;15.37;;;;;;;;;;2057419;28;20170;-51
2022/04/28 03:01:35;;;;;;;24.27;16.70;;;;;;;;;;2057900;28;20257;-50
2022/04/28 03:02:35;;;;;;;24.50;15.50;;;;;;;;;;2066157;28;20182;-49
2022/04/28 03:03:35;;;;;;;26.23;17.50;;;;;;;;;;2065699;28;20245;-51
2022/04/28 03:04:37;;;;;;;28.00;17.50;;;;;;;;;;2073286;28;20188;-50
2022/04/28 03:10:55;;;;;;;25.87;15.83;;;;;;;;;;2068821;28;20177;-54
2022/04/28 03:11:59;;;;;;;22.43;15.97;;;;;;;;;;2069988;28;20177;-52
2022/04/28 03:13:00;;;;;;;19.73;14.33;;;;;;;;;;2063563;28;20170;-49
2022/04/28 03:14:04;;;;;;;22.73;15.03;;;;;;;;;;2069422;28;20177;-51
2022/04/28 03:15:06;;;;;;;19.90;14.57;;;;;;;;;;2073644;28;20497;-55
2022/04/28 03:16:07;;;;;;;25.60;15.63;;;;;;;;;;2072218;28;20169;-53
2022/04/28 03:17:28;;;;;;;24.20;16.07;;;;;;;;;;2071066;28;20204;-54
2022/04/28 03:18:29;;;;;;;23.07;16.47;;;;;;;;;;2067587;28;20193;-55
2022/04/28 03:19:30;;;;;;;18.43;14.53;;;;;;;;;;2076418;28;20248;-51
2022/04/28 03:20:31;;;;;;;25.87;15.50;;;;;;;;;;2072586;28;20621;-52
2022/04/28 03:21:34;;;;;;;22.40;15.90;;;;;;;;;;2065326;28;20194;-49
2022/04/28 03:22:36;;;;;;;24.43;16.20;;;;;;;;;;2065367;28;20170;-52
2022/04/28 03:23:37;;;;;;;22.63;15.57;;;;;;;;;;2070129;28;20196;-49
2022/04/28 03:24:37;;;;;;;24.97;16.07;;;;;;;;;;2065609;28;20264;-54
2022/04/28 03:25:38;;;;;;;22.70;17.40;;;;;;;;;;2074276;28;20257;-54
2022/04/28 03:26:39;;;;;;;26.33;15.93;;;;;;;;;;2082574;28;20183;-51
2022/04/28 03:27:43;;;;;;;24.83;15.73;;;;;;;;;;2074605;28;20188;-52
2022/04/28 03:28:43;;;;;;;23.53;16.00;;;;;;;;;;2066249;28;20361;-52
2022/04/28 03:29:44;;;;;;;26.93;16.97;;;;;;;;;;2067164;28;20256;-50
2022/04/28 03:30:46;;;;;;;26.90;17.10;;;;;;;;;;2066525;28;20248;-52
2022/04/28 03:31:52;;;;;;;23.57;16.10;;;;;;;;;;2061638;28;20252;-53
2022/04/28 03:33:01;;;;;;;23.67;16.80;;;;;;;;;;2067354;28;20219;-55
2022/04/28 03:34:02;;;;;;;24.33;16.33;;;;;;;;;;2072382;28;20181;-49
2022/04/28 03:35:03;;;;;;;26.47;16.93;;;;;;;;;;2061947;28;20174;-50
2022/04/28 03:36:50;;;;;;;27.50;16.40;;;;;;;;;;2066036;28;20196;-49
2022/04/28 03:37:24;;;;;;;25.03;16.00;;;;;;;;;;2072859;28;20216;-51
2022/04/28 03:38:25;;;;;;;23.47;16.67;;;;;;;;;;2074900;28;20165;-50
2022/04/28 03:39:25;;;;;;;23.13;16.60;;;;;;;;;;2074244;28;20268;-49
2022/04/28 03:40:25;;;;;;;35.27;17.40;;;;;;;;;;2067035;28;20190;-49
2022/04/28 03:41:26;;;;;;;28.10;17.87;;;;;;;;;;2074999;28;20196;-50
2022/04/28 03:42:27;;;;;;;24.27;16.93;;;;;;;;;;2074934;28;20180;-53
2022/04/28 03:43:30;;;;;;;24.10;16.33;;;;;;;;;;2091248;28;20179;-46
2022/04/28 03:44:30;;;;;;;23.50;15.40;;;;;;;;;;2081752;28;20238;-48
2022/04/28 03:45:32;;;;;;;25.27;15.93;;;;;;;;;;2059522;28;20205;-50
2022/04/28 03:46:32;;;;;;;23.30;16.40;;;;;;;;;;2066221;28;20207;-52
2022/04/28 03:47:33;;;;;;;25.10;16.50;;;;;;;;;;2074338;28;20173;-51
2022/04/28 03:48:34;;;;;;;28.57;17.20;;;;;;;;;;2074276;28;20165;-49
2022/04/28 03:49:34;;;;;;;22.57;15.77;;;;;;;;;;2074153;28;20172;-50
2022/04/28 03:50:39;;;;;;;22.03;16.10;;;;;;;;;;2066362;28;20166;-48
2022/04/28 03:51:39;;;;;;;26.93;16.57;;;;;;;;;;2065884;28;20201;-50
2022/04/28 03:52:40;;;;;;;27.63;16.10;;;;;;;;;;2065664;28;20197;-48
2022/04/28 03:53:41;;;;;;;23.73;16.40;;;;;;;;;;2063959;28;20196;-52
2022/04/28 03:54:41;;;;;;;26.43;16.37;;;;;;;;;;2065031;28;20201;-51
2022/04/28 03:55:42;;;;;;;20.10;15.27;;;;;;;;;;2065386;28;20271;-50
2022/04/28 03:56:42;;;;;;;25.77;15.63;;;;;;;;;;2076101;28;20207;-48
2022/04/28 03:57:44;;;;;;;21.97;15.77;;;;;;;;;;2066508;28;20162;-51
2022/04/28 03:58:45;;;;;;;24.93;15.77;;;;;;;;;;2065526;28;20224;-51
2022/04/28 03:59:45;;;;;;;24.97;15.70;;;;;;;;;;2066013;28;20233;-53
2022/04/28 04:02:12;;;;;;;23.07;16.00;;;;;;;;;;2056824;28;20213;-51
2022/04/28 04:03:13;;;;;;;24.50;15.73;;;;;;;;;;2060742;28;20290;-50
2022/04/28 04:04:13;;;;;;;26.47;16.93;;;;;;;;;;2054211;28;20607;-55
2022/04/28 04:05:18;;;;;;;29.33;16.43;;;;;;;;;;2055056;28;20170;-52
2022/04/28 04:06:19;;;;;;;24.10;16.33;;;;;;;;;;2064516;28;20825;-53
2022/04/28 04:07:31;;;;;;;27.90;17.50;;;;;;;;;;2064628;28;20256;-53
2022/04/28 04:09:08;;;;;;;29.07;15.87;;;;;;;;;;2058609;28;20181;-52
2022/04/28 04:10:09;;;;;;;29.60;17.30;;;;;;;;;;2064573;28;20165;-50
2022/04/28 04:11:13;;;;;;;26.93;16.77;;;;;;;;;;2056711;28;20182;-53
2022/04/28 04:12:13;;;;;;;25.03;16.77;;;;;;;;;;2056823;28;20198;-51
2022/04/28 04:13:34;;;;;;;20.40;14.73;;;;;;;;;;2043041;29;20684;-55
2022/04/28 04:14:34;;;;;;;22.27;15.33;;;;;;;;;;2060892;28;20184;-52
2022/04/28 04:15:34;;;;;;;24.33;15.40;;;;;;;;;;2056134;28;20217;-50
2022/04/28 04:16:34;;;;;;;21.60;15.97;;;;;;;;;;2072106;28;20213;-53
2022/04/28 04:17:39;;;;;;;24.00;16.50;;;;;;;;;;2057413;28;20186;-51
2022/04/28 04:18:39;;;;;;;27.27;16.33;;;;;;;;;;2069458;28;20740;-55
2022/04/28 04:19:42;;;;;;;26.60;15.70;;;;;;;;;;2064555;28;20173;-51
2022/04/28 04:20:42;;;;;;;22.70;16.67;;;;;;;;;;2072993;28;20181;-53
2022/04/28 04:21:42;;;;;;;27.70;17.37;;;;;;;;;;2066478;28;20313;-52
2022/04/28 04:22:42;;;;;;;22.87;15.97;;;;;;;;;;2066350;28;20174;-59
2022/04/28 04:23:43;;;;;;;28.27;17.43;;;;;;;;;;2058744;28;20174;-51
2022/04/28 04:24:43;;;;;;;27.87;17.10;;;;;;;;;;2057736;28;20175;-53
2022/04/28 04:25:46;;;;;;;27.43;17.80;;;;;;;;;;2058887;28;20185;-52
2022/04/28 04:26:55;;;;;;;28.70;17.97;;;;;;;;;;2058508;28;20170;-59
2022/04/28 04:28:15;;;;;;;24.40;17.03;;;;;;;;;;2059849;28;20208;-50
2022/04/28 04:29:36;;;;;;;27.57;16.90;;;;;;;;;;2058912;28;20187;-53
2022/04/28 04:32:25;;;;;;;25.20;17.47;;;;;;;;;;2060234;28;20185;-54
2022/04/28 04:33:30;;;;;;;24.60;19.03;;;;;;;;;;2067217;28;20165;-51
2022/04/28 04:34:30;;;;;;;28.63;18.87;;;;;;;;;;2066836;28;20180;-51
2022/04/28 04:35:30;;;;;;;30.00;19.87;;;;;;;;;;2065685;28;20665;-55
2022/04/28 04:36:33;;;;;;;24.73;18.00;;;;;;;;;;2057059;28;20179;-56
2022/04/28 04:37:34;;;;;;;28.67;18.93;;;;;;;;;;2056335;28;20194;-57
2022/04/28 04:38:34;;;;;;;25.67;18.13;;;;;;;;;;2069276;28;20174;-55
2022/04/28 04:39:34;;;;;;;30.03;19.50;;;;;;;;;;2068398;28;20178;-52
2022/04/28 04:40:35;;;;;;;29.97;17.53;;;;;;;;;;2073457;28;20173;-52
2022/04/28 04:41:36;;;;;;;28.87;17.67;;;;;;;;;;2059544;28;20226;-52
2022/04/28 04:42:38;;;;;;;26.47;17.10;;;;;;;;;;2057613;28;20175;-52
2022/04/28 04:43:39;;;;;;;31.07;18.63;;;;;;;;;;2055703;28;20179;-54
2022/04/28 04:44:39;;;;;;;29.73;20.03;;;;;;;;;;2067498;28;20193;-52
2022/04/28 04:45:42;;;;;;;31.97;19.40;;;;;;;;;;2065116;28;20705;-51
2022/04/28 04:46:46;;;;;;;29.57;19.47;;;;;;;;;;2067129;28;20200;-56
2022/04/28 04:47:55;;;;;;;30.07;19.30;;;;;;;;;;2068223;28;20311;-52
2022/04/28 04:49:13;;;;;;;28.43;18.93;;;;;;;;;;2070511;28;20180;-55
2022/04/28 04:50:14;;;;;;;25.43;17.33;;;;;;;;;;2055204;28;20594;-56
2022/04/28 04:51:24;;;;;;;24.37;16.90;;;;;;;;;;2059617;28;20193;-56
2022/04/28 04:52:38;;;;;;;26.20;17.93;;;;;;;;;;2062105;28;20216;-53
2022/04/28 04:53:41;;;;;;;27.80;18.77;;;;;;;;;;2062887;28;20186;-53
2022/04/28 04:54:41;;;;;;;29.47;18.93;;;;;;;;;;2062553;28;20170;-52
2022/04/28 04:55:42;;;;;;;26.33;17.63;;;;;;;;;;2066372;28;20240;-52
2022/04/28 04:56:42;;;;;;;27.87;17.97;;;;;;;;;;2067061;28;20170;-53
2022/04/28 04:57:43;;;;;;;26.10;17.90;;;;;;;;;;2058428;28;20198;-52
2022/04/28 04:58:43;;;;;;;31.77;19.10;;;;;;;;;;2067395;28;20268;-52
2022/04/28 04:59:43;;;;;;;30.00;18.23;;;;;;;;;;2068079;28;20170;-51
2022/04/28 05:00:44;;;;;;;25.83;17.83;;;;;;;;;;2063823;28;20571;-56
2022/04/28 05:01:56;;;;;;;27.60;18.30;;;;;;;;;;2069663;28;20299;-55
2022/04/28 05:03:15;;;;;;;29.67;17.57;;;;;;;;;;2068707;28;20185;-55
2022/04/28 05:04:34;;;;;;;25.13;16.57;;;;;;;;;;2071328;28;20185;-57
2022/04/28 05:06:07;;;;;;;27.50;16.63;;;;;;;;;;2064773;28;20176;-53
2022/04/28 05:07:21;;;;;;;30.63;18.40;;;;;;;;;;2069505;28;20690;-55
2022/04/28 05:08:22;;;;;;;32.80;17.40;;;;;;;;;;2068927;28;20161;-54
2022/04/28 05:09:31;;;;;;;24.77;17.10;;;;;;;;;;2063847;28;20277;-55
2022/04/28 05:10:32;;;;;;;30.90;17.47;;;;;;;;;;2059794;28;20639;-51
2022/04/28 05:11:32;;;;;;;24.47;16.73;;;;;;;;;;2062910;28;20195;-52
2022/04/28 05:12:55;;;;;;;28.23;17.50;;;;;;;;;;2068860;28;20187;-53
2022/04/28 05:14:05;;;;;;;27.57;16.73;;;;;;;;;;2066128;28;20160;-54
2022/04/28 05:15:05;;;;;;;26.80;17.13;;;;;;;;;;2068455;28;20193;-54
2022/04/28 05:16:11;;;;;;;27.63;17.67;;;;;;;;;;2061406;28;20177;-54
2022/04/28 05:17:24;;;;;;;22.60;16.27;;;;;;;;;;2064896;28;20170;-53
2022/04/28 05:18:51;;;;;;;24.70;16.83;;;;;;;;;;2068666;28;20189;-53
2022/04/28 05:20:13;;;;;;;23.87;16.67;;;;;;;;;;2071431;28;20189;-52
2022/04/28 05:21:49;;;;;;;22.70;16.13;;;;;;;;;;2069755;28;20198;-53
2022/04/28 05:23:08;;;;;;;28.80;16.63;;;;;;;;;;2069208;28;20193;-53
2022/04/28 05:24:28;;;;;;;24.37;15.87;;;;;;;;;;2050460;29;20220;-54
2022/04/28 05:25:48;;;;;;;22.50;15.80;;;;;;;;;;2067282;28;20162;-54
2022/04/28 05:27:07;;;;;;;19.90;16.10;;;;;;;;;;2068687;28;20202;-53
2022/04/28 05:28:33;;;;;;;22.33;16.43;;;;;;;;;;2055335;28;20191;-55
2022/04/28 05:29:52;;;;;;;23.40;15.73;;;;;;;;;;2070916;28;20170;-54
2022/04/28 05:31:14;;;;;;;23.90;15.43;;;;;;;;;;2066206;28;20220;-55
2022/04/28 05:32:31;;;;;;;21.97;15.90;;;;;;;;;;2061863;28;20186;-60
2022/04/28 05:33:46;;;;;;;23.43;15.63;;;;;;;;;;2061737;28;20182;-54
2022/04/28 05:34:55;;;;;;;25.47;15.80;;;;;;;;;;2068023;28;20177;-57
2022/04/28 05:35:56;;;;;;;21.57;15.20;;;;;;;;;;2068118;28;20204;-56
2022/04/28 05:36:56;;;;;;;20.80;14.60;;;;;;;;;;2068407;28;20632;-52
2022/04/28 05:37:57;;;;;;;22.10;15.67;;;;;;;;;;2068968;28;20185;-58
2022/04/28 05:38:57;;;;;;;23.30;15.47;;;;;;;;;;2071449;28;20250;-57
2022/04/28 05:39:58;;;;;;;21.77;15.33;;;;;;;;;;2073153;28;20196;-57
2022/04/28 05:40:58;;;;;;;22.17;15.67;;;;;;;;;;2067968;28;20188;-59
2022/04/28 05:42:01;;;;;;;23.80;15.23;;;;;;;;;;2061584;28;20193;-59
2022/04/28 05:45:43;;;;;;;20.87;15.37;;;;;;;;;;2071904;28;20169;-55
2022/04/28 05:46:47;;;;;;;19.47;14.47;;;;;;;;;;2055658;28;20233;-61
2022/04/28 05:47:47;;;;;;;19.90;14.23;;;;;;;;;;2059737;28;20264;-60
2022/04/28 05:48:48;;;;;;;27.07;15.37;;;;;;;;;;2060434;28;20175;-60
2022/04/28 05:49:48;;;;;;;19.70;15.57;;;;;;;;;;2067908;28;20169;-60
2022/04/28 05:50:49;;;;;;;23.00;14.83;;;;;;;;;;2066963;28;20217;-61
2022/04/28 05:51:52;;;;;;;24.97;19.90;;;;;;;;;;2055073;28;20277;-59
2022/04/28 05:52:55;;;;;;;23.63;15.30;;;;;;;;;;2056057;28;20190;-60
2022/04/28 05:53:57;;;;;;;24.00;14.30;;;;;;;;;;2056689;28;20205;-58
2022/04/28 05:54:57;;;;;;;18.83;14.87;;;;;;;;;;2057871;28;20181;-59
2022/04/28 05:55:58;;;;;;;28.23;14.83;;;;;;;;;;2058487;28;20681;-61
2022/04/28 05:57:11;;;;;;;21.77;16.47;;;;;;;;;;2060221;28;20236;-58
2022/04/28 05:58:11;;;;;;;21.23;16.30;;;;;;;;;;2056280;28;20182;-60
2022/04/28 05:59:16;;;;;;;26.07;15.50;;;;;;;;;;2059766;28;20269;-59
2022/04/28 06:00:19;;;;;;;20.00;14.13;;;;;;;;;;2066051;28;20166;-59
2022/04/28 06:01:20;;;;;;;23.07;16.70;;;;;;;;;;2066150;28;20177;-57
2022/04/28 06:02:21;;;;;;;21.00;16.23;;;;;;;;;;2067640;28;20550;-60
2022/04/28 06:03:21;;;;;;;20.80;13.87;;;;;;;;;;2057286;28;20182;-62
2022/04/28 06:04:34;;;;;;;18.97;14.00;;;;;;;;;;2065744;28;20551;-53
2022/04/28 06:05:34;;;;;;;18.97;13.70;;;;;;;;;;2054143;28;20201;-51
2022/04/28 06:06:35;;;;;;;25.80;14.50;;;;;;;;;;2054034;28;20178;-54
2022/04/28 06:07:37;;;;;;;165.17;25.67;;;;;;;;;;2057676;28;20240;-52
2022/04/28 06:08:38;;;;;;;380.93;42.73;;;;;;;;;;2054954;28;20603;-51
2022/04/28 06:09:39;;;;;;;66.43;17.37;;;;;;;;;;2055082;28;20175;-52
2022/04/28 06:10:39;;;;;;;191.57;24.60;;;;;;;;;;2059960;28;20186;-56
2022/04/28 06:11:40;;;;;;;191.30;25.90;;;;;;;;;;2063463;28;20260;-56
2022/04/28 06:12:41;;;;;;;97.80;19.43;;;;;;;;;;2066031;28;21023;-51
2022/04/28 06:14:01;;;;;;;62.83;16.00;;;;;;;;;;2052707;28;20657;-50
2022/04/28 06:15:19;;;;;;;63.50;17.17;;;;;;;;;;2061677;28;20232;-52
2022/04/28 06:16:38;;;;;;;68.47;16.63;;;;;;;;;;2066455;28;20547;-52
2022/04/28 06:17:48;;;;;;;55.17;15.57;;;;;;;;;;2064631;28;20181;-52
2022/04/28 06:18:48;;;;;;;68.57;15.70;;;;;;;;;;2058895;28;20614;-50
2022/04/28 06:20:26;;;;;;;27.98;12.50;;;;;;;;;;2070359;28;20579;-49
2022/04/28 06:21:43;;;;;;;54.58;14.93;;;;;;;;;;2073000;28;20682;-52
2022/04/28 06:22:44;;;;;;;44.88;13.95;;;;;;;;;;2056878;28;20175;-51
2022/04/28 06:23:45;;;;;;;45.35;14.20;;;;;;;;;;2064147;28;20193;-50
2022/04/28 06:24:53;;;;;;;94.85;19.75;;;;;;;;;;2062730;28;20178;-52
2022/04/28 06:25:55;;;;;;;37.50;14.03;;;;;;;;;;2064197;28;20297;-50
2022/04/28 06:26:55;;;;;;;45.67;20.38;;;;;;;;;;2056954;28;20240;-54
2022/04/28 06:27:55;;;;;;;47.60;15.98;;;;;;;;;;2064692;28;20174;-54
2022/04/28 06:28:56;;;;;;;54.20;15.32;;;;;;;;;;2060004;28;20259;-52
2022/04/28 06:29:56;;;;;;;41.88;13.77;;;;;;;;;;2061391;28;20170;-52
2022/04/28 06:30:57;;;;;;;56.58;17.75;;;;;;;;;;2063643;28;20185;-51